< < Back
Terminal Aerodrome Forecast


Current Version              Previous Versions:   1  2  3  4  5  6  7  8  9  

Terminal Aerodrome Forecast

410
FTUS42 KILM 291729
TAFILM
TAF
KILM 291729Z 2918/3018 17006KT P6SM SCT015 BKN130
     FM300300 20003KT P6SM SCT120 BKN250
      TEMPO 3009/3011 5SM BR SCT004=

Latest METAR

254
SAUS70 KWBC 301900 RRQ
MTRILM
METAR KILM 301853Z 15007KT 10SM CLR 29/22 A3000 RMK AO2 SLP159
T02940222


USA.gov is the U.S. government's official web portal to all federal, state and local government web resources and services.